Terminal Aerodrome Forecast
Issued by NWS Sioux Falls, SD

Home | Current Version | Previous Version | Graphics & Text | Print | Product List | Glossary On
Versions: 1 2 3 4 5 6 7 8 9 10 11 12 13 14 15 16 17 18 19 20
000
FTUS43 KFSD 070520
TAFFSD
TAF
KFSD 070520Z 0706/0806 15019G26KT P6SM -SHRA SCT030 OVC040
     FM071000 16015G22KT P6SM -SHRA BKN025 OVC035
     FM071200 19013G19KT P6SM SCT015 BKN030
     FM071800 23015G22KT P6SM BKN040 BKN070
     FM080000 30012G20KT P6SM BKN040=

USA.gov is the U.S. government's official web portal to all federal, state and local government web resources and services.